Time;durP1;ratioP1;P1;durP2;ratioP2;P2;SDS_P1;SDS_P2;PMS_P1;PMS_P2;Temp;Humidity;BMP_temperature;BMP_pressure;BME280_temperature;BME280_humidity;BME280_pressure;Samples;Min_cycle;Max_cycle;Signal;HPM_P1;HPM_P2
2022/02/07 00:14:46;;;;;;;3.80;2.27;;;;;;;5.99;100.00;97784.91;713924;1174;113618;-82
2022/02/07 00:29:48;;;;;;;3.60;1.47;;;;;;;5.56;100.00;97825.11;713188;1174;114493;-80
2022/02/07 00:44:50;;;;;;;6.23;1.83;;;;;;;5.65;100.00;97850.14;713805;1200;26402;-82
2022/02/07 00:59:53;;;;;;;6.55;1.93;;;;;;;5.52;100.00;97873.20;713642;1202;23133;-81
2022/02/07 01:15:07;;;;;;;5.55;2.90;;;;;;;5.42;100.00;97888.97;713807;1200;23164;-80
2022/02/07 02:00:53;;;;;;;11.05;2.58;;;;;;;5.36;100.00;97908.63;713569;1205;25981;-82
2022/02/07 02:16:11;;;;;;;4.48;2.15;;;;;;;5.30;100.00;97927.46;713385;1204;23141;-83
2022/02/07 02:46:35;;;;;;;7.40;2.28;;;;;;;4.98;100.00;97971.38;714212;1200;23135;-80
2022/02/07 03:01:37;;;;;;;44.05;13.80;;;;;;;4.94;100.00;97980.45;713538;1204;23131;-81
2022/02/07 03:16:39;;;;;;;33.07;11.67;;;;;;;5.00;100.00;97989.41;713516;1204;23295;-81
2022/02/07 03:31:43;;;;;;;7.08;3.60;;;;;;;4.94;100.00;97990.05;714964;1200;26102;-81
2022/02/07 03:46:46;;;;;;;154.15;35.93;;;;;;;4.80;100.00;98002.66;716130;1174;115994;-81
2022/02/07 04:01:48;;;;;;;85.30;20.83;;;;;;;4.83;100.00;98023.12;719591;1168;115545;-79
2022/02/07 04:16:50;;;;;;;38.65;13.10;;;;;;;4.92;100.00;98038.74;713851;1205;23165;-80
2022/02/07 04:31:53;;;;;;;16.33;7.37;;;;;;;4.83;100.00;98053.48;714886;1170;115009;-80
2022/02/07 05:02:07;;;;;;;37.08;12.95;;;;;;;4.97;100.00;98107.47;714496;1177;115520;-77
2022/02/07 05:17:12;;;;;;;72.55;21.70;;;;;;;4.94;100.00;98125.97;713057;1177;115799;-77
2022/02/07 05:32:16;;;;;;;17.80;7.58;;;;;;;4.95;100.00;98155.39;713029;1177;115306;-76
2022/02/07 05:47:18;;;;;;;14.60;5.95;;;;;;;4.87;100.00;98176.09;713201;1177;115318;-77
2022/02/07 06:02:20;;;;;;;63.55;24.05;;;;;;;4.82;100.00;98212.92;712452;1177;113934;-78
2022/02/07 06:17:22;;;;;;;22.90;11.50;;;;;;;4.82;100.00;98254.49;712714;1177;113929;-77
2022/02/07 06:32:25;;;;;;;17.35;8.90;;;;;;;4.88;100.00;98287.66;713362;1203;23147;-77
2022/02/07 06:47:28;;;;;;;81.63;26.67;;;;;;;4.86;100.00;98314.75;711929;1205;25687;-77
2022/02/07 07:02:30;;;;;;;30.98;17.25;;;;;;;4.38;100.00;98381.56;713600;1205;23171;-80
2022/02/07 07:17:32;;;;;;;27.27;15.20;;;;;;;4.07;100.00;98403.38;713411;1206;26185;-79
2022/02/07 07:32:34;;;;;;;75.73;30.47;;;;;;;3.72;100.00;98437.67;712071;1206;24612;-76
2022/02/07 07:47:36;;;;;;;347.37;131.57;;;;;;;3.72;100.00;98479.17;713385;1205;23182;-75
2022/02/07 08:02:39;;;;;;;191.60;79.93;;;;;;;3.69;100.00;98511.38;713353;1203;23160;-75
2022/02/07 08:17:41;;;;;;;56.08;26.23;;;;;;;3.88;100.00;98554.70;713119;1203;23120;-76
2022/02/07 08:32:43;;;;;;;182.45;66.00;;;;;;;3.98;100.00;98588.44;713016;1203;23147;-81
2022/02/07 08:47:45;;;;;;;309.13;88.33;;;;;;;4.12;100.00;98633.95;713945;1203;23144;-75
2022/02/07 09:17:51;;;;;;;156.85;58.50;;;;;;;4.44;100.00;98721.17;714060;1204;23208;-84
2022/02/07 09:32:54;;;;;;;112.95;52.38;;;;;;;4.77;100.00;98734.74;712308;1203;23164;-85
2022/02/07 09:48:03;;;;;;;23.13;11.05;;;;;;;5.04;100.00;98773.06;712258;1203;23182;-90
2022/02/07 10:18:43;;;;;;;37.73;16.88;;;;;;;6.12;100.00;98820.56;713330;1205;23150;-87
2022/02/07 10:48:58;;;;;;;20.27;8.70;;;;;;;6.75;96.93;98873.75;713537;1203;23147;-87
2022/02/07 11:04:06;;;;;;;22.75;11.80;;;;;;;7.82;93.69;98887.81;713523;1205;24584;-89
2022/02/07 11:19:37;;;;;;;;;;;;;;;6.59;90.29;98905.65;713533;1207;23163;-87
2022/02/07 11:34:49;;;;;;;29.40;11.73;;;;;;;6.35;90.17;98945.23;713841;1205;21614;-87
2022/02/07 11:50:00;;;;;;;14.83;7.60;;;;;;;6.69;89.46;98952.54;714589;1203;25974;-89
2022/02/07 12:05:08;;;;;;;22.08;11.50;;;;;;;6.61;87.20;98983.67;713743;1203;23170;-86
2022/02/07 12:20:16;;;;;;;14.58;5.90;;;;;;;6.80;84.67;99006.27;714125;1203;23195;-86
2022/02/07 12:35:24;;;;;;;76.50;27.90;;;;;;;6.99;80.23;99024.46;713637;1203;23147;-76
2022/02/07 12:50:27;;;;;;;;;;;;;;;7.18;78.87;99046.21;713305;1203;23134;-76
2022/02/07 13:05:37;;;;;;;11.57;5.17;;;;;;;7.23;78.57;99077.91;713480;1205;24426;-75
2022/02/07 13:20:43;;;;;;;22.57;9.23;;;;;;;7.18;78.75;99113.19;713478;1203;23137;-75
2022/02/07 13:35:51;;;;;;;22.57;10.37;;;;;;;6.71;78.96;99156.50;714163;1203;26033;-77
2022/02/07 13:50:57;;;;;;;72.20;26.13;;;;;;;9.93;78.48;99188.53;713986;1176;114032;-80
2022/02/07 14:06:07;;;;;;;56.33;24.47;;;;;;;7.04;78.31;99216.99;716038;1170;114409;-76
2022/02/07 14:21:11;;;;;;;44.27;20.00;;;;;;;6.64;79.40;99251.84;714370;1176;115720;-76
2022/02/07 15:00:30;;;;;;;25.15;9.55;;;;;;;6.41;81.17;99311.97;715963;1173;23145;-74
